Time;durP1;ratioP1;P1;durP2;ratioP2;P2;SDS_P1;SDS_P2;PMS_P1;PMS_P2;Temp;Humidity;BMP_temperature;BMP_pressure;BME280_temperature;BME280_humidity;BME280_pressure;Samples;Min_cycle;Max_cycle;Signal;HPM_P1;HPM_P2
2021/12/21 00:00:29;;;;;;;16.98;4.68;;;;;;;-3.32;100.00;99626.22;5015334;28;20034;-71
2021/12/21 00:02:55;;;;;;;14.38;3.58;;;;;;;-3.43;100.00;99629.53;5031645;28;20044;-71
2021/12/21 00:05:21;;;;;;;12.75;3.55;;;;;;;-3.54;100.00;99626.69;5023037;28;20033;-71
2021/12/21 00:07:52;;;;;;;12.80;3.55;;;;;;;-3.59;100.00;99613.75;5035625;28;20396;-71
2021/12/21 00:10:19;;;;;;;7.93;3.17;;;;;;;-3.48;100.00;99633.38;5015907;28;20030;-71
2021/12/21 00:13:03;;;;;;;12.93;3.22;;;;;;;-3.66;100.00;99595.72;5025301;28;20080;-71
2021/12/21 00:15:53;;;;;;;8.45;2.97;;;;;;;-3.82;100.00;99586.06;5022189;28;20029;-73
2021/12/21 00:20:58;;;;;;;12.77;3.00;;;;;;;-3.67;100.00;99596.63;5034427;28;20498;-71
2021/12/21 00:26:14;;;;;;;13.02;3.55;;;;;;;-3.55;100.00;99617.91;5035723;28;20035;-71
2021/12/21 00:31:17;;;;;;;8.80;4.00;;;;;;;-3.56;100.00;99608.28;5029215;28;20111;-71
2021/12/21 00:33:45;;;;;;;11.55;3.50;;;;;;;-3.52;100.00;99611.56;5023771;28;20486;-71
2021/12/21 00:36:12;;;;;;;16.95;3.03;;;;;;;-3.61;100.00;99591.00;5038042;28;20033;-71
2021/12/21 00:38:37;;;;;;;8.05;2.92;;;;;;;-3.47;100.00;99588.34;5045186;28;20094;-71
2021/12/21 00:41:03;;;;;;;10.02;3.15;;;;;;;-3.29;100.00;99609.31;5031454;28;20014;-71
2021/12/21 00:43:29;;;;;;;5.20;2.67;;;;;;;-3.47;100.00;99583.03;5039307;28;20030;-71
2021/12/21 00:45:54;;;;;;;10.57;3.13;;;;;;;-3.48;100.00;99581.34;5023883;28;20739;-71
2021/12/21 00:48:21;;;;;;;11.50;3.40;;;;;;;-3.45;100.00;99586.44;5023419;28;20445;-71
2021/12/21 00:50:47;;;;;;;8.13;3.35;;;;;;;-3.60;100.00;99571.53;5034124;28;20155;-71
2021/12/21 00:53:12;;;;;;;17.00;3.60;;;;;;;-3.61;100.00;99567.19;5046492;28;20045;-71
2021/12/21 00:55:38;;;;;;;12.90;3.60;;;;;;;-3.36;100.00;99596.44;5037513;28;20121;-71
2021/12/21 00:58:04;;;;;;;8.50;2.97;;;;;;;-3.47;100.00;99580.41;5023790;28;20050;-71
2021/12/21 01:00:29;;;;;;;14.65;3.30;;;;;;;-3.43;100.00;99559.88;5036673;28;20476;-71
2021/12/21 01:02:58;;;;;;;10.30;3.40;;;;;;;-3.52;100.00;99554.22;5038368;28;20040;-71
2021/12/21 01:05:34;;;;;;;9.50;2.80;;;;;;;-3.23;100.00;99585.09;5033127;28;20060;-71
2021/12/21 01:08:02;;;;;;;7.45;3.17;;;;;;;-3.27;100.00;99588.91;5020907;28;20505;-71
2021/12/21 01:10:52;;;;;;;7.70;2.80;;;;;;;-3.23;100.00;99587.75;5043430;28;20425;-71
2021/12/21 01:16:07;;;;;;;5.43;2.63;;;;;;;-3.33;100.00;99563.66;5033372;28;20551;-71
2021/12/21 01:18:41;;;;;;;8.18;2.58;;;;;;;-3.33;100.00;99585.69;5036748;28;20029;-71
2021/12/21 01:21:16;;;;;;;6.93;2.70;;;;;;;-3.51;100.00;99573.63;5043777;28;20021;-71
2021/12/21 01:29:50;;;;;;;9.85;2.72;;;;;;;-3.24;100.00;99580.78;5028641;28;20067;-71
2021/12/21 01:34:41;;;;;;;8.27;2.97;;;;;;;-3.36;100.00;99575.28;5039707;28;20039;-71
2021/12/21 01:39:59;;;;;;;5.70;2.50;;;;;;;-3.53;100.00;99551.69;5025661;28;20685;-71
2021/12/21 01:49:59;;;;;;;11.48;3.42;;;;;;;-3.55;100.00;99554.41;5036372;28;20520;-70
2021/12/21 01:52:26;;;;;;;9.48;3.25;;;;;;;-3.36;100.00;99575.28;5039398;28;20049;-71
2021/12/21 01:54:53;;;;;;;11.05;3.10;;;;;;;-3.37;100.00;99583.31;5032630;28;20041;-71
2021/12/21 01:57:18;;;;;;;14.18;2.83;;;;;;;-3.54;100.00;99560.56;5018448;28;20017;-71
2021/12/21 01:59:46;;;;;;;11.25;3.10;;;;;;;-3.70;100.00;99531.56;5003693;28;20034;-71
2021/12/21 02:02:16;;;;;;;7.97;2.42;;;;;;;-3.41;100.00;99571.22;5029949;28;20028;-71
2021/12/21 02:04:41;;;;;;;;;;;;;;;-3.34;100.00;99568.09;5026812;28;20021;-71
2021/12/21 02:07:08;;;;;;;5.05;2.35;;;;;;;-3.03;100.00;99562.66;5053714;28;19908;-71
2021/12/21 02:09:39;;;;;;;10.55;2.85;;;;;;;-3.10;100.00;99551.63;5015745;28;20056;-71
2021/12/21 02:12:16;;;;;;;9.73;1.90;;;;;;;-2.80;100.00;99532.03;5030281;28;20029;-71
2021/12/21 02:14:51;;;;;;;11.32;2.70;;;;;;;-2.94;100.00;99539.06;5030265;28;20034;-71
2021/12/21 02:19:57;;;;;;;8.07;2.40;;;;;;;-3.18;100.00;99548.63;5035914;28;20033;-71
2021/12/21 02:22:25;;;;;;;8.93;3.05;;;;;;;-3.29;100.00;99538.72;5037395;28;20052;-71
2021/12/21 02:25:06;;;;;;;13.60;2.70;;;;;;;-3.05;100.00;99533.63;5023199;28;20040;-71
2021/12/21 02:27:55;;;;;;;5.28;2.20;;;;;;;-2.47;100.00;99558.09;5042237;28;20027;-71
2021/12/21 02:30:21;;;;;;;6.72;2.10;;;;;;;-2.28;100.00;99532.06;4997108;28;20095;-71
2021/12/21 02:32:47;;;;;;;7.20;2.15;;;;;;;-2.51;100.00;99533.63;5016612;28;20116;-71
2021/12/21 02:35:12;;;;;;;10.30;2.42;;;;;;;-2.57;100.00;99541.94;5025902;28;20025;-71
2021/12/21 02:37:38;;;;;;;9.05;2.88;;;;;;;-2.61;100.00;99534.34;5030973;28;20113;-71
2021/12/21 02:40:05;;;;;;;7.70;2.42;;;;;;;-2.82;100.00;99539.25;5019909;28;20407;-71
2021/12/21 02:42:31;;;;;;;8.73;2.42;;;;;;;-2.81;100.00;99547.06;5010966;28;20116;-71
2021/12/21 02:44:56;;;;;;;5.43;2.42;;;;;;;-2.98;100.00;99542.03;5044783;28;20057;-71
2021/12/21 02:47:21;;;;;;;8.77;2.38;;;;;;;-3.02;100.00;99544.03;5012550;28;20060;-71
2021/12/21 02:49:47;;;;;;;8.48;2.35;;;;;;;-3.05;100.00;99561.91;5037539;28;20028;-71
2021/12/21 02:52:12;;;;;;;12.38;3.15;;;;;;;-2.95;100.00;99555.09;5048936;28;20474;-71
2021/12/21 02:54:37;;;;;;;5.47;2.67;;;;;;;-3.01;100.00;99553.69;5047247;28;20021;-71
2021/12/21 02:57:03;;;;;;;9.00;2.95;;;;;;;-2.90;100.00;99545.88;5035992;28;20033;-71
2021/12/21 02:59:29;;;;;;;4.72;2.28;;;;;;;-2.65;100.00;99550.44;5028477;28;20033;-72
2021/12/21 03:01:55;;;;;;;6.63;2.55;;;;;;;-2.80;100.00;99540.84;5025738;28;20024;-71
2021/12/21 03:04:21;;;;;;;7.50;2.45;;;;;;;-3.04;100.00;99527.38;5028681;28;20029;-71
2021/12/21 03:14:53;;;;;;;8.88;3.05;;;;;;;-3.21;100.00;99549.66;5013204;28;20037;-71
2021/12/21 03:17:19;;;;;;;7.55;2.53;;;;;;;-3.00;100.00;99541.28;5010070;28;20041;-71
2021/12/21 03:19:45;;;;;;;15.85;2.80;;;;;;;-2.70;100.00;99557.84;4998192;28;20120;-71
2021/12/21 03:22:11;;;;;;;7.53;3.05;;;;;;;-2.71;100.00;99550.81;5015013;28;20112;-71
2021/12/21 03:24:37;;;;;;;9.00;2.92;;;;;;;-2.93;100.00;99561.97;5025959;28;20022;-71
2021/12/21 03:27:04;;;;;;;8.35;2.47;;;;;;;-3.18;100.00;99538.03;5033448;28;20494;-71
2021/12/21 03:29:29;;;;;;;10.15;2.97;;;;;;;-3.12;100.00;99542.91;5037068;28;20116;-71
2021/12/21 03:31:55;;;;;;;7.97;2.40;;;;;;;-3.38;100.00;99528.69;5026131;28;20515;-71
2021/12/21 03:34:20;;;;;;;9.55;2.60;;;;;;;-3.72;100.00;99500.88;5042426;28;20032;-71
2021/12/21 03:36:46;;;;;;;4.72;2.22;;;;;;;-3.28;100.00;99553.63;5052423;28;20096;-71
2021/12/21 03:39:18;;;;;;;4.50;2.30;;;;;;;-3.45;100.00;99549.41;5038725;28;20024;-71
2021/12/21 03:41:47;;;;;;;6.43;2.38;;;;;;;-3.68;100.00;99542.91;5028933;28;20020;-71
2021/12/21 03:44:13;;;;;;;10.18;3.10;;;;;;;-3.68;100.00;99556.13;5041607;28;20021;-71
2021/12/21 03:46:52;;;;;;;8.05;3.08;;;;;;;-3.78;100.00;99531.19;5036055;28;20033;-71
2021/12/21 03:52:06;;;;;;;6.47;3.13;;;;;;;-4.16;100.00;99523.00;5031497;28;20036;-71
2021/12/21 03:54:31;;;;;;;7.75;3.17;;;;;;;-4.14;100.00;99540.41;5020247;28;20026;-71
2021/12/21 03:56:57;;;;;;;13.45;4.00;;;;;;;-4.16;100.00;99547.63;5023170;28;20021;-71
2021/12/21 03:59:23;;;;;;;10.00;3.40;;;;;;;-4.23;100.00;99551.56;5026124;28;20551;-70
2021/12/21 04:01:49;;;;;;;10.07;3.55;;;;;;;-4.15;100.00;99548.47;5035488;28;20016;-71
2021/12/21 04:04:18;;;;;;;10.77;3.42;;;;;;;-4.16;100.00;99549.41;5033111;28;20029;-71
2021/12/21 04:06:44;;;;;;;11.70;4.25;;;;;;;-4.29;100.00;99534.28;5038454;28;20021;-71
2021/12/21 04:09:10;;;;;;;10.82;3.67;;;;;;;-4.29;100.00;99554.56;5042909;28;20037;-71
2021/12/21 04:11:35;;;;;;;13.85;5.15;;;;;;;-4.37;100.00;99543.63;5036459;28;20036;-71
2021/12/21 04:14:01;;;;;;;17.67;5.75;;;;;;;-4.52;100.00;99524.22;5035316;28;20384;-71
2021/12/21 04:16:28;;;;;;;9.77;4.03;;;;;;;-4.45;100.00;99558.13;5033643;28;20025;-71
2021/12/21 04:18:53;;;;;;;9.02;2.90;;;;;;;-4.48;100.00;99557.41;5037932;28;20072;-71
2021/12/21 04:21:19;;;;;;;7.45;2.95;;;;;;;-4.58;100.00;99556.28;5031903;28;20029;-71
2021/12/21 04:23:44;;;;;;;5.47;2.55;;;;;;;-4.83;100.00;99539.19;5025077;28;20509;-71
2021/12/21 04:26:12;;;;;;;8.00;2.90;;;;;;;-4.84;100.00;99534.88;5016464;28;20169;-71
2021/12/21 04:28:38;;;;;;;6.10;2.67;;;;;;;-4.74;100.00;99556.28;5032328;28;20033;-71
2021/12/21 04:31:04;;;;;;;5.30;2.53;;;;;;;-4.62;100.00;99555.59;5040282;28;20017;-71
2021/12/21 04:33:30;;;;;;;7.45;2.55;;;;;;;-4.62;100.00;99571.44;5049140;28;20029;-71
2021/12/21 04:35:56;;;;;;;8.10;2.80;;;;;;;-4.63;100.00;99548.63;5039722;28;20101;-71
2021/12/21 04:38:24;;;;;;;9.52;2.78;;;;;;;-4.60;100.00;99548.44;5018491;28;20093;-71
2021/12/21 04:40:57;;;;;;;10.13;2.40;;;;;;;-4.59;100.00;99570.41;5031367;28;20025;-70
2021/12/21 04:43:22;;;;;;;7.78;3.22;;;;;;;-4.71;100.00;99551.72;5006777;28;20045;-71
2021/12/21 04:45:48;;;;;;;8.30;3.25;;;;;;;-4.71;100.00;99535.88;5032241;28;20025;-71
2021/12/21 04:48:13;;;;;;;11.65;3.25;;;;;;;-4.62;100.00;99556.44;5086980;22;20052;-72
2021/12/21 04:50:40;;;;;;;9.20;3.05;;;;;;;-4.74;100.00;99551.00;5055359;28;20048;-73
2021/12/21 04:53:05;;;;;;;9.43;3.20;;;;;;;-4.84;100.00;99534.88;5054323;28;20461;-73
2021/12/21 04:55:31;;;;;;;14.38;3.78;;;;;;;-4.72;100.00;99544.72;5075223;28;20035;-73
2021/12/21 04:57:57;;;;;;;13.45;4.63;;;;;;;-4.81;100.00;99529.41;5068604;28;20033;-75
2021/12/21 05:00:22;;;;;;;12.98;4.82;;;;;;;-5.01;100.00;99537.63;5071736;28;20497;-73
2021/12/21 05:02:48;;;;;;;14.02;4.78;;;;;;;-4.96;100.00;99531.13;5056912;28;20036;-73
2021/12/21 05:05:13;;;;;;;11.25;4.25;;;;;;;-5.05;100.00;99515.00;5036264;28;20490;-73
2021/12/21 05:07:41;;;;;;;12.85;3.63;;;;;;;-4.94;100.00;99529.25;5025952;28;20498;-74
2021/12/21 05:10:09;;;;;;;7.53;3.40;;;;;;;-4.90;100.00;99540.47;5058345;28;20039;-73
2021/12/21 05:12:36;;;;;;;10.98;4.00;;;;;;;-4.99;100.00;99531.31;5054842;28;20032;-73
2021/12/21 05:15:02;;;;;;;6.90;3.40;;;;;;;-4.95;100.00;99540.78;5053327;28;20029;-74
2021/12/21 05:17:27;;;;;;;12.45;4.40;;;;;;;-5.10;100.00;99524.00;5048759;28;20380;-74
2021/12/21 05:19:53;;;;;;;15.75;4.45;;;;;;;-5.00;100.00;99545.47;5034559;28;20033;-77
2021/12/21 05:22:18;;;;;;;11.07;4.60;;;;;;;-5.09;100.00;99528.34;5052599;28;20036;-73
2021/12/21 05:24:43;;;;;;;12.20;4.80;;;;;;;-5.18;100.00;99531.50;5057325;28;20025;-74
2021/12/21 05:27:10;;;;;;;19.52;5.85;;;;;;;-5.14;100.00;99543.56;5057382;28;21447;-73
2021/12/21 05:29:36;;;;;;;20.52;7.15;;;;;;;-5.25;100.00;99530.16;5041116;28;20482;-73
2021/12/21 05:32:02;;;;;;;15.60;6.50;;;;;;;-5.22;100.00;99542.31;5056468;28;20025;-74
2021/12/21 05:34:28;;;;;;;21.58;6.45;;;;;;;-5.19;100.00;99532.44;5037134;28;20390;-74
2021/12/21 05:36:54;;;;;;;12.45;5.55;;;;;;;-5.36;100.00;99535.19;5057182;28;20031;-76
2021/12/21 05:39:24;;;;;;;14.02;5.10;;;;;;;-5.22;100.00;99529.13;5043442;28;20107;-76
2021/12/21 05:41:52;;;;;;;12.80;5.68;;;;;;;-5.18;100.00;99539.44;5056249;28;20048;-73
2021/12/21 05:44:19;;;;;;;12.05;5.05;;;;;;;-5.23;100.00;99516.88;5048068;28;20029;-74
2021/12/21 05:46:45;;;;;;;13.75;5.05;;;;;;;-5.25;100.00;99519.59;5039603;28;20055;-74
2021/12/21 05:49:10;;;;;;;12.07;4.63;;;;;;;-5.26;100.00;99504.72;5053338;28;20466;-72
2021/12/21 05:51:36;;;;;;;13.43;5.15;;;;;;;-5.23;100.00;99527.44;5052789;28;20040;-74
2021/12/21 05:54:02;;;;;;;11.65;4.90;;;;;;;-5.25;100.00;99527.50;5050994;28;20163;-74
2021/12/21 05:56:28;;;;;;;10.30;4.55;;;;;;;-5.52;100.00;99514.91;5057523;28;20504;-74
2021/12/21 05:58:53;;;;;;;8.35;4.40;;;;;;;-5.32;100.00;99539.31;5043966;28;20114;-74
2021/12/21 06:01:18;;;;;;;14.43;5.25;;;;;;;-5.46;100.00;99532.19;5041617;28;20359;-73
2021/12/21 06:03:44;;;;;;;9.85;4.68;;;;;;;-5.47;100.00;99532.28;5061470;28;20398;-73
2021/12/21 06:06:13;;;;;;;17.45;5.22;;;;;;;-5.35;100.00;99539.50;5053339;28;20024;-74
2021/12/21 06:08:41;;;;;;;14.30;5.10;;;;;;;-5.38;100.00;99537.03;5052973;28;20509;-73
2021/12/21 06:11:07;;;;;;;14.43;6.53;;;;;;;-5.39;100.00;99530.06;5037757;28;20035;-74
2021/12/21 06:26:43;;;;;;;15.80;5.75;;;;;;;-5.35;100.00;99518.41;5053642;28;20147;-76
2021/12/21 06:29:09;;;;;;;20.27;6.30;;;;;;;-5.51;100.00;99497.31;5050527;28;20422;-75
2021/12/21 06:31:35;;;;;;;13.32;6.10;;;;;;;-5.46;100.00;99510.25;5059968;28;20050;-74
2021/12/21 06:34:00;;;;;;;11.95;4.88;;;;;;;-5.32;100.00;99540.19;5053961;28;20371;-74
2021/12/21 06:36:26;;;;;;;13.45;4.78;;;;;;;-5.39;100.00;99527.44;5051961;28;20025;-73
2021/12/21 06:38:53;;;;;;;12.77;4.80;;;;;;;-5.37;100.00;99541.38;5041817;28;20032;-73
2021/12/21 06:41:19;;;;;;;14.88;5.57;;;;;;;-5.47;100.00;99522.59;5052552;28;20442;-75
2021/12/21 06:43:45;;;;;;;10.23;4.50;;;;;;;-5.47;100.00;99519.09;5035744;28;20036;-74
2021/12/21 06:46:40;;;;;;;11.75;4.80;;;;;;;-5.42;100.00;99517.03;5049868;28;20036;-74
2021/12/21 06:51:50;;;;;;;16.80;4.90;;;;;;;-5.36;100.00;99530.75;5045738;28;20048;-72
2021/12/21 06:54:16;;;;;;;12.10;6.10;;;;;;;-5.17;100.00;99527.94;5050586;28;20033;-75
2021/12/21 06:56:41;;;;;;;22.23;5.95;;;;;;;-5.18;100.00;99536.78;5045822;28;20040;-73
2021/12/21 06:59:07;;;;;;;16.40;5.93;;;;;;;-5.18;100.00;99530.66;5032902;28;20016;-74
2021/12/21 07:01:33;;;;;;;16.70;6.45;;;;;;;-5.27;100.00;99521.47;5045475;28;20086;-73
2021/12/21 07:03:59;;;;;;;16.20;6.25;;;;;;;-5.17;100.00;99540.28;5045858;28;20033;-75
2021/12/21 07:06:25;;;;;;;13.60;4.60;;;;;;;-4.95;100.00;99531.97;5036541;28;20025;-72
2021/12/21 07:09:10;;;;;;;12.82;5.13;;;;;;;-4.79;100.00;99540.75;5060422;28;20025;-72
2021/12/21 07:11:43;;;;;;;15.70;6.00;;;;;;;-4.73;100.00;99539.53;5039808;28;20045;-72
2021/12/21 07:19:38;;;;;;;12.13;5.00;;;;;;;-4.76;100.00;99537.91;5067096;28;20027;-73
2021/12/21 07:22:07;;;;;;;14.02;4.78;;;;;;;-4.83;100.00;99552.41;5054975;28;20024;-73
2021/12/21 07:24:32;;;;;;;15.70;5.35;;;;;;;-4.75;100.00;99544.03;5068258;28;20089;-73
2021/12/21 07:26:58;;;;;;;17.08;6.47;;;;;;;-4.87;100.00;99549.09;5064702;28;20037;-73
2021/12/21 07:29:24;;;;;;;10.65;4.35;;;;;;;-4.85;100.00;99538.44;5050221;28;20029;-73
2021/12/21 07:31:49;;;;;;;16.27;5.40;;;;;;;-4.83;100.00;99535.72;5043481;28;20031;-74
2021/12/21 07:34:15;;;;;;;15.85;5.32;;;;;;;-4.85;100.00;99549.88;5042735;28;20033;-74
2021/12/21 07:36:43;;;;;;;15.60;5.22;;;;;;;-4.86;100.00;99555.22;5031383;28;20026;-76
2021/12/21 07:39:10;;;;;;;16.23;5.13;;;;;;;-5.00;100.00;99536.66;5045218;28;20382;-76
2021/12/21 07:41:35;;;;;;;10.02;4.28;;;;;;;-4.85;100.00;99559.53;5023677;28;20029;-75
2021/12/21 07:44:01;;;;;;;15.95;5.07;;;;;;;-4.81;100.00;99565.53;5032980;28;20608;-72
2021/12/21 07:46:26;;;;;;;10.25;3.92;;;;;;;-4.84;100.00;99566.56;5048697;28;20158;-75
2021/12/21 07:48:52;;;;;;;14.15;4.05;;;;;;;-4.73;100.00;99553.56;5061896;28;20021;-74
2021/12/21 07:51:17;;;;;;;8.23;4.22;;;;;;;-4.74;100.00;99557.16;5050267;28;20382;-76
2021/12/21 07:53:43;;;;;;;13.02;3.63;;;;;;;-4.43;100.00;99574.72;5052356;28;20128;-75
2021/12/21 07:56:09;;;;;;;9.27;4.25;;;;;;;-4.43;100.00;99573.84;5033502;28;20698;-74
2021/12/21 07:58:36;;;;;;;44.78;13.95;;;;;;;-4.33;100.00;99561.81;5047983;28;20041;-73
2021/12/21 08:01:05;;;;;;;66.90;20.92;;;;;;;-4.27;100.00;99574.69;5047807;28;20024;-73
2021/12/21 08:03:34;;;;;;;44.20;14.25;;;;;;;-4.07;100.00;99569.97;5045324;28;20555;-72
2021/12/21 08:06:03;;;;;;;38.13;13.40;;;;;;;-4.18;100.00;99568.81;5056846;28;20036;-72
2021/12/21 08:08:30;;;;;;;33.17;11.67;;;;;;;-3.92;100.00;99574.34;5033296;28;20030;-73
2021/12/21 08:11:28;;;;;;;31.30;11.60;;;;;;;-4.00;100.00;99564.25;5034037;28;20029;-73
2021/12/21 08:13:46;;;;;;;18.15;8.70;;;;;;;-3.83;100.00;99573.78;5044394;28;20053;-72
2021/12/21 08:16:12;;;;;;;11.90;4.82;;;;;;;-3.86;100.00;99579.25;5041465;28;20542;-73
2021/12/21 08:18:38;;;;;;;14.68;5.70;;;;;;;-3.73;100.00;99581.16;5055079;28;20127;-73
2021/12/21 08:21:04;;;;;;;15.02;5.82;;;;;;;-3.67;100.00;99580.78;5055348;28;20060;-73
2021/12/21 08:23:29;;;;;;;13.60;5.45;;;;;;;-3.53;100.00;99580.78;5050646;28;20025;-73
2021/12/21 08:25:56;;;;;;;12.75;6.10;;;;;;;-3.54;100.00;99585.25;5062599;28;20032;-73
2021/12/21 08:28:22;;;;;;;19.45;7.03;;;;;;;-3.59;100.00;99574.09;5050567;28;20096;-76
2021/12/21 08:30:47;;;;;;;16.23;6.57;;;;;;;-3.42;100.00;99588.91;5052764;28;20025;-73
2021/12/21 08:33:13;;;;;;;26.15;12.07;;;;;;;-3.54;99.79;99577.31;5045188;28;20040;-74
2021/12/21 08:35:39;;;;;;;26.30;11.27;;;;;;;-3.49;98.66;99576.16;5050785;28;20036;-77
2021/12/21 08:38:07;;;;;;;29.98;11.65;;;;;;;-2.81;99.45;99568.25;5029773;28;20022;-75
2021/12/21 08:40:42;;;;;;;25.38;11.98;;;;;;;-0.65;95.48;99578.13;5053551;28;20024;-77
2021/12/21 08:43:15;;;;;;;30.80;11.07;;;;;;;1.33;91.58;99546.72;5054430;28;20116;-75
2021/12/21 08:45:43;;;;;;;28.58;12.02;;;;;;;3.41;77.21;99565.25;5037155;28;20025;-75
2021/12/21 08:48:09;;;;;;;27.35;12.57;;;;;;;4.85;69.35;99554.47;5046423;28;20025;-77
2021/12/21 08:50:35;;;;;;;22.35;10.57;;;;;;;6.43;63.87;99540.53;5040333;28;20071;-71
2021/12/21 08:53:01;;;;;;;26.77;11.45;;;;;;;7.32;58.66;99548.16;5051160;28;20078;-74
2021/12/21 08:55:27;;;;;;;24.90;10.70;;;;;;;7.42;54.58;99542.63;5054058;28;20107;-77
2021/12/21 08:57:52;;;;;;;21.38;9.60;;;;;;;8.09;51.51;99535.25;5051881;28;20519;-76
2021/12/21 09:00:18;;;;;;;16.65;7.43;;;;;;;9.60;48.71;99539.81;5036841;28;20112;-75
2021/12/21 09:02:44;;;;;;;14.45;7.45;;;;;;;9.95;44.92;99529.44;5040431;28;20102;-76
2021/12/21 09:05:14;;;;;;;10.85;5.68;;;;;;;10.25;44.73;99522.25;5048487;28;20057;-75
2021/12/21 09:07:40;;;;;;;21.48;10.07;;;;;;;11.44;42.27;99536.59;5036472;28;20086;-76
2021/12/21 09:10:08;;;;;;;25.08;13.07;;;;;;;11.87;40.36;99533.97;5065167;28;20033;-72
2021/12/21 09:12:34;;;;;;;28.27;12.80;;;;;;;12.28;39.65;99536.00;5069635;28;20025;-78
2021/12/21 09:14:59;;;;;;;21.58;10.57;;;;;;;13.22;37.63;99538.25;5043407;28;20050;-75
2021/12/21 09:17:25;;;;;;;17.52;8.75;;;;;;;13.75;36.98;99532.16;5067340;28;20088;-74
2021/12/21 09:19:51;;;;;;;15.23;7.97;;;;;;;14.58;35.69;99518.19;5069760;28;20025;-75
2021/12/21 09:22:16;;;;;;;12.63;6.95;;;;;;;15.18;34.60;99518.88;5080885;28;20017;-77
2021/12/21 09:24:42;;;;;;;14.20;7.80;;;;;;;16.03;33.22;99536.91;5055854;28;20085;-76
2021/12/21 09:27:07;;;;;;;17.95;9.45;;;;;;;16.33;32.77;99518.81;5056964;28;20066;-74
2021/12/21 09:29:32;;;;;;;16.23;10.00;;;;;;;16.66;32.48;99514.94;5043669;28;20012;-75
2021/12/21 09:31:57;;;;;;;14.85;8.75;;;;;;;16.81;31.75;99520.91;5057788;28;20074;-78
2021/12/21 09:34:26;;;;;;;17.38;11.43;;;;;;;16.71;31.67;99509.63;5052180;28;20073;-78
2021/12/21 09:36:53;;;;;;;18.85;11.75;;;;;;;16.65;31.93;99514.09;5071411;28;20039;-73
2021/12/21 09:39:18;;;;;;;19.05;10.90;;;;;;;16.25;31.20;99521.00;5064787;28;20025;-78
2021/12/21 09:41:44;;;;;;;13.80;9.32;;;;;;;17.21;31.51;99515.00;5052187;28;20019;-76
2021/12/21 09:44:10;;;;;;;16.48;11.95;;;;;;;17.37;29.78;99523.63;5045953;28;20032;-77
2021/12/21 09:46:35;;;;;;;18.60;11.10;;;;;;;17.52;31.05;99511.19;5053677;28;20059;-76
2021/12/21 09:49:01;;;;;;;16.50;9.45;;;;;;;16.86;30.29;99518.31;5058564;28;20060;-76
2021/12/21 09:51:26;;;;;;;15.93;8.88;;;;;;;17.46;30.62;99500.38;5053978;28;20025;-74
2021/12/21 09:53:55;;;;;;;15.77;9.52;;;;;;;17.55;30.88;99515.38;5057837;28;20039;-73
2021/12/21 09:56:20;;;;;;;14.63;9.40;;;;;;;17.65;30.43;99503.88;5050441;28;20036;-76
2021/12/21 09:58:46;;;;;;;9.68;7.13;;;;;;;18.39;30.46;99529.09;5033868;28;20025;-75
2021/12/21 10:01:11;;;;;;;18.63;10.52;;;;;;;17.32;30.16;99510.66;5054320;28;20032;-74
2021/12/21 10:03:37;;;;;;;17.35;9.75;;;;;;;17.10;29.48;99513.00;5067314;28;20067;-76
2021/12/21 10:06:05;;;;;;;14.25;7.82;;;;;;;16.68;30.90;99511.97;5065655;28;20039;-76
2021/12/21 10:08:33;;;;;;;9.07;5.63;;;;;;;16.86;31.99;99501.94;5076737;28;20371;-80
2021/12/21 10:10:59;;;;;;;9.50;5.75;;;;;;;17.60;30.03;99515.53;5050593;28;20033;-77
2021/12/21 10:13:26;;;;;;;9.95;5.85;;;;;;;17.33;31.38;99519.69;5051300;28;20478;-74
2021/12/21 10:15:55;;;;;;;11.35;6.03;;;;;;;17.15;30.24;99515.91;5059261;28;20064;-74
2021/12/21 10:18:26;;;;;;;12.00;5.82;;;;;;;16.41;31.12;99506.78;5042915;28;20147;-76
2021/12/21 10:20:52;;;;;;;10.82;5.55;;;;;;;16.71;31.77;99523.28;5057794;28;20025;-70
2021/12/21 10:23:23;;;;;;;8.10;4.97;;;;;;;17.71;30.36;99508.41;5047947;28;20016;-71
2021/12/21 10:25:57;;;;;;;8.35;5.03;;;;;;;15.97;31.43;99519.53;5046924;28;20457;-71
2021/12/21 10:28:36;;;;;;;16.80;8.35;;;;;;;16.21;31.78;99507.78;5031982;28;20075;-70
2021/12/21 10:31:21;;;;;;;;;;;;;;;16.10;30.97;99499.47;5032141;28;20030;-70
2021/12/21 10:33:47;;;;;;;7.50;3.80;;;;;;;16.44;30.90;99492.66;5055824;28;19912;-71
2021/12/21 10:36:14;;;;;;;5.55;3.55;;;;;;;16.83;31.35;99480.53;5033272;28;20032;-70
2021/12/21 10:38:50;;;;;;;6.85;3.00;;;;;;;17.78;28.58;99487.28;5032816;28;20045;-73
2021/12/21 10:41:20;;;;;;;4.75;2.90;;;;;;;16.63;30.82;99486.16;5031941;28;20029;-73
2021/12/21 10:44:16;;;;;;;6.72;2.90;;;;;;;15.63;31.35;99491.59;5049785;28;20032;-72
2021/12/21 10:46:50;;;;;;;6.40;2.60;;;;;;;17.77;29.58;99471.09;5043997;28;20106;-70
2021/12/21 10:49:21;;;;;;;5.95;2.75;;;;;;;17.04;29.35;99486.59;5102970;22;20029;-71
2021/12/21 10:52:01;;;;;;;5.88;2.17;;;;;;;17.52;29.16;99477.53;5016064;28;20477;-71
2021/12/21 10:54:33;;;;;;;5.05;2.50;;;;;;;16.50;30.36;99469.91;5021756;28;20028;-71
2021/12/21 10:57:19;;;;;;;6.15;2.65;;;;;;;18.17;29.94;99442.00;5036859;28;20041;-70
2021/12/21 10:59:47;;;;;;;8.80;2.50;;;;;;;18.35;29.72;99464.91;5026016;28;20048;-71
2021/12/21 11:02:17;;;;;;;4.30;2.20;;;;;;;17.59;29.37;99448.19;5015343;28;20031;-71
2021/12/21 11:04:49;;;;;;;4.63;2.10;;;;;;;16.36;30.39;99461.00;5019405;28;20375;-72
2021/12/21 11:10:10;;;;;;;4.47;2.25;;;;;;;18.05;29.10;99454.88;4999766;28;20140;-71
2021/12/21 11:12:47;;;;;;;4.35;1.92;;;;;;;19.17;27.86;99455.75;4989233;28;20364;-72
2021/12/21 11:15:15;;;;;;;4.97;2.45;;;;;;;17.63;28.96;99457.63;5004081;28;20041;-72
2021/12/21 11:17:41;;;;;;;5.07;2.40;;;;;;;17.42;29.99;99428.88;5014805;28;20034;-72
2021/12/21 11:20:08;;;;;;;4.72;2.15;;;;;;;18.48;28.37;99430.94;5027526;28;20044;-72
2021/12/21 11:22:35;;;;;;;4.70;2.50;;;;;;;19.04;27.84;99411.03;5031936;28;20029;-72
2021/12/21 11:25:01;;;;;;;5.53;2.30;;;;;;;20.24;26.63;99432.13;5021908;28;20026;-67
2021/12/21 11:27:29;;;;;;;6.00;2.35;;;;;;;19.44;26.83;99434.03;5012466;28;20034;-67
2021/12/21 11:29:59;;;;;;;4.57;2.40;;;;;;;18.49;27.62;99430.69;5012844;28;20053;-67
2021/12/21 11:32:28;;;;;;;4.28;2.30;;;;;;;17.95;28.38;99419.03;5012662;28;20308;-67
2021/12/21 11:37:44;;;;;;;5.95;2.22;;;;;;;17.28;29.02;99428.22;5019370;28;20077;-67
2021/12/21 11:40:13;;;;;;;6.05;3.67;;;;;;;16.20;30.36;99435.13;5019224;28;20096;-65
2021/12/21 11:42:47;;;;;;;6.22;3.47;;;;;;;16.44;30.68;99436.13;5022012;28;20614;-67
2021/12/21 11:45:17;;;;;;;5.07;2.10;;;;;;;17.82;28.48;99441.16;5019766;28;20554;-67
2021/12/21 11:48:10;;;;;;;3.50;2.38;;;;;;;18.08;28.64;99424.28;5018936;28;20139;-67
2021/12/21 11:50:38;;;;;;;4.25;2.17;;;;;;;18.13;28.98;99429.03;5019327;28;20040;-67
2021/12/21 11:53:07;;;;;;;5.10;2.58;;;;;;;17.68;28.81;99424.91;5023282;28;20129;-67
2021/12/21 11:55:35;;;;;;;5.50;2.20;;;;;;;18.18;28.73;99421.78;5015558;28;20091;-66
2021/12/21 11:58:15;;;;;;;3.88;2.13;;;;;;;17.25;28.38;99420.47;5016591;28;20032;-67
2021/12/21 12:01:07;;;;;;;3.38;1.50;;;;;;;16.67;27.98;99414.69;5015531;28;20034;-67
2021/12/21 12:03:37;;;;;;;4.55;1.40;;;;;;;16.78;26.95;99422.97;5018413;28;20434;-67
2021/12/21 12:06:12;;;;;;;3.20;1.10;;;;;;;16.37;27.86;99413.56;5024047;28;20037;-67
2021/12/21 12:08:52;;;;;;;3.22;0.88;;;;;;;16.42;27.19;99416.41;5011842;28;20029;-66
2021/12/21 12:11:35;;;;;;;3.00;1.33;;;;;;;15.05;28.81;99427.09;5023253;28;20120;-66
2021/12/21 12:14:18;;;;;;;2.83;1.42;;;;;;;14.68;29.17;99409.66;5030270;28;20029;-66
2021/12/21 12:16:51;;;;;;;3.03;1.33;;;;;;;15.40;28.75;99410.31;5013562;28;20530;-66
2021/12/21 12:19:19;;;;;;;2.72;1.25;;;;;;;14.51;29.28;99406.53;5012443;28;20029;-67
2021/12/21 12:22:00;;;;;;;10.13;1.58;;;;;;;12.87;32.33;99413.34;5004154;28;20030;-66
2021/12/21 12:24:38;;;;;;;2.45;1.48;;;;;;;13.43;31.34;99381.53;5015967;28;20084;-66
2021/12/21 12:27:14;;;;;;;3.83;1.63;;;;;;;13.31;30.88;99412.06;5018871;28;20037;-66
2021/12/21 12:29:47;;;;;;;3.50;1.40;;;;;;;12.46;32.67;99414.22;5026777;28;20554;-67
2021/12/21 12:32:14;;;;;;;4.10;1.50;;;;;;;12.92;32.36;99419.03;5013800;28;20490;-66
2021/12/21 12:34:41;;;;;;;2.10;1.15;;;;;;;13.20;32.14;99412.59;5030480;28;20533;-67
2021/12/21 12:37:22;;;;;;;6.35;1.40;;;;;;;13.73;31.81;99420.88;5032152;28;20379;-67
2021/12/21 12:39:59;;;;;;;3.40;1.40;;;;;;;14.87;30.68;99369.75;5015577;28;20037;-67